Terminal Aerodrome Forecast
Issued by NWS Omaha/Valley, NE

Home | Current Version | Previous Version | Graphics & Text | Print | Product List | Glossary On
Versions: 1 2 3 4 5 6 7 8 9 10 11 12 13 14 15 16 17 18 19 20 21 22 23 24 25 26 27 28 29 30 31 32 33 34 35
000
FTUS43 KOAX 091120
TAFOFK
TAF
KOFK 091120Z 0912/1012 34015G22KT P6SM BKN150
     FM091900 33011KT P6SM BKN120
     FM100000 VRB04KT P6SM OVC070
     FM100800 13003KT P6SM OVC025=

USA.gov is the U.S. government's official web portal to all federal, state and local government web resources and services.